createdAt,value
2018-12-12T00:01:03.792Z,1.00
2018-12-12T00:03:31.304Z,1.10
2018-12-12T00:06:00.175Z,1.20
2018-12-12T00:08:27.664Z,1.20
2018-12-12T00:10:55.214Z,1.20
2018-12-12T00:13:22.615Z,1.10
2018-12-12T00:15:50.200Z,1.00
2018-12-12T00:18:17.740Z,1.10
2018-12-12T00:20:45.169Z,1.00
2018-12-12T00:23:12.593Z,1.00
2018-12-12T00:25:40.020Z,1.10
2018-12-12T00:28:07.472Z,1.10
2018-12-12T00:30:34.937Z,1.00
2018-12-12T00:33:02.348Z,1.00
2018-12-12T00:35:29.785Z,1.00
2018-12-12T00:37:57.588Z,1.00
2018-12-12T00:40:25.020Z,1.00
2018-12-12T00:42:52.412Z,0.90
2018-12-12T00:45:19.852Z,1.00
2018-12-12T00:47:47.281Z,1.00
2018-12-12T00:50:14.680Z,1.00
2018-12-12T00:52:42.113Z,1.00
2018-12-12T00:55:09.525Z,1.00
2018-12-12T00:57:37.396Z,1.10
2018-12-12T01:00:05.051Z,1.00
2018-12-12T01:02:32.472Z,1.00
2018-12-12T01:04:59.881Z,1.00
2018-12-12T01:07:27.312Z,0.90
2018-12-12T01:09:54.717Z,1.10
2018-12-12T01:12:22.288Z,1.10
2018-12-12T01:14:49.836Z,1.00
2018-12-12T01:17:17.293Z,0.90
2018-12-12T01:19:44.729Z,0.90
2018-12-12T01:22:12.283Z,0.90
2018-12-12T01:24:39.677Z,0.90
2018-12-12T01:27:07.173Z,0.90
2018-12-12T01:29:34.634Z,1.00
2018-12-12T01:32:02.047Z,0.90
2018-12-12T01:34:29.427Z,0.90
2018-12-12T01:36:57.272Z,0.90
2018-12-12T01:39:24.680Z,1.10
2018-12-12T01:41:52.121Z,1.20
2018-12-12T01:44:19.624Z,1.20
2018-12-12T01:46:47.064Z,1.20
2018-12-12T01:49:14.464Z,1.20
2018-12-12T01:51:41.880Z,1.20
2018-12-12T01:54:09.264Z,1.20
2018-12-12T01:56:36.683Z,1.30
2018-12-12T01:59:04.085Z,1.30
2018-12-12T02:01:31.507Z,1.20
2018-12-12T02:03:58.905Z,1.20
2018-12-12T02:06:26.352Z,1.10
2018-12-12T02:08:53.764Z,1.00
2018-12-12T02:11:21.302Z,0.90
2018-12-12T02:13:48.730Z,0.90
2018-12-12T02:16:16.376Z,0.90
2018-12-12T02:18:45.475Z,0.90
2018-12-12T02:21:12.934Z,0.90
2018-12-12T02:23:40.547Z,0.80
2018-12-12T02:26:08.091Z,0.80
2018-12-12T02:28:35.520Z,0.90
2018-12-12T02:31:03.092Z,1.00
2018-12-12T02:33:30.537Z,1.10
2018-12-12T02:35:58.050Z,1.00
2018-12-12T02:38:25.442Z,0.80
2018-12-12T02:40:52.891Z,0.80
2018-12-12T02:43:20.282Z,0.70
2018-12-12T02:45:47.683Z,0.80
2018-12-12T02:48:15.454Z,0.80
2018-12-12T02:50:43.045Z,0.70
2018-12-12T02:53:10.619Z,0.70
2018-12-12T02:55:38.030Z,0.50
2018-12-12T02:58:05.470Z,0.50
2018-12-12T03:00:32.869Z,0.50
2018-12-12T03:03:00.292Z,0.60
2018-12-12T03:05:27.707Z,0.60
2018-12-12T03:07:55.131Z,0.70
2018-12-12T03:10:22.560Z,0.80
2018-12-12T03:12:49.959Z,0.90
2018-12-12T03:15:17.383Z,0.80
2018-12-12T03:17:44.922Z,0.70
2018-12-12T03:20:12.453Z,0.50
2018-12-12T03:22:39.865Z,0.40
2018-12-12T03:25:07.312Z,0.30
2018-12-12T03:27:34.717Z,0.40
2018-12-12T03:30:02.435Z,0.50
2018-12-12T03:32:30.049Z,0.60
2018-12-12T03:34:57.532Z,0.50
2018-12-12T03:37:24.946Z,0.50
2018-12-12T03:39:52.383Z,0.50
2018-12-12T03:42:19.792Z,0.50
2018-12-12T03:44:47.212Z,0.60
2018-12-12T03:47:14.640Z,0.70
2018-12-12T03:49:42.044Z,0.60
2018-12-12T03:52:09.481Z,0.50
2018-12-12T03:54:36.885Z,0.50
2018-12-12T03:57:04.315Z,0.50
2018-12-12T03:59:31.725Z,0.50
2018-12-12T04:01:59.276Z,0.50
2018-12-12T04:04:26.699Z,0.40
2018-12-12T04:06:54.271Z,0.20
2018-12-12T04:09:21.694Z,0.20
2018-12-12T04:11:49.115Z,0.20
2018-12-12T04:14:16.512Z,0.20
2018-12-12T04:16:43.936Z,0.00
2018-12-12T04:19:11.576Z,0.00
2018-12-12T04:21:39.044Z,0.00
2018-12-12T04:24:06.472Z,-0.10
2018-12-12T04:26:33.904Z,-0.10
2018-12-12T04:29:01.311Z,-0.10
2018-12-12T04:31:28.742Z,-0.20
2018-12-12T04:33:56.154Z,-0.10
2018-12-12T04:36:23.741Z,-0.20
2018-12-12T04:38:51.223Z,-0.20
2018-12-12T04:41:18.676Z,-0.30
2018-12-12T04:43:46.096Z,-0.30
2018-12-12T04:46:13.523Z,-0.30
2018-12-12T04:48:40.924Z,-0.20
2018-12-12T04:51:08.353Z,-0.20
2018-12-12T04:53:35.766Z,-0.30
2018-12-12T04:56:03.330Z,-0.30
2018-12-12T04:58:30.836Z,-0.30
2018-12-12T05:00:58.276Z,-0.20
2018-12-12T05:03:25.667Z,-0.20
2018-12-12T05:05:53.131Z,-0.30
2018-12-12T05:08:20.579Z,-0.40
2018-12-12T05:10:47.992Z,-0.30
2018-12-12T05:13:22.214Z,-0.30
2018-12-12T05:15:49.608Z,-0.20
2018-12-12T05:18:17.756Z,-0.20
2018-12-12T05:20:45.219Z,-0.30
2018-12-12T05:23:12.649Z,-0.40
2018-12-12T05:25:40.032Z,-0.40
2018-12-12T05:28:07.451Z,-0.40
2018-12-12T05:30:34.862Z,-0.20
2018-12-12T05:33:02.287Z,-0.40
2018-12-12T05:35:29.693Z,-0.30
2018-12-12T05:38:04.365Z,-0.40
2018-12-12T05:40:32.095Z,-0.30
2018-12-12T05:42:59.548Z,-0.50
2018-12-12T05:45:27.305Z,-0.30
2018-12-12T05:47:55.317Z,-0.30
2018-12-12T05:50:22.731Z,-0.40
2018-12-12T05:52:50.157Z,-0.30
2018-12-12T05:55:17.564Z,-0.20
2018-12-12T05:57:47.309Z,-0.40
2018-12-12T06:00:14.908Z,-0.50
2018-12-12T06:02:42.360Z,-0.40
2018-12-12T06:05:09.799Z,-0.40
2018-12-12T06:07:37.200Z,-0.40
2018-12-12T06:10:05.770Z,-0.30
2018-12-12T06:12:33.192Z,-0.40
2018-12-12T06:15:00.789Z,-0.30
2018-12-12T06:17:28.196Z,-0.40
2018-12-12T06:19:55.967Z,-0.40
2018-12-12T06:22:23.712Z,-0.60
2018-12-12T06:24:51.156Z,-0.50
2018-12-12T06:27:18.570Z,-0.60
2018-12-12T06:29:46.061Z,-0.70
2018-12-12T06:32:13.477Z,-0.60
2018-12-12T06:34:41.189Z,-0.60
2018-12-12T06:37:08.858Z,-0.60
2018-12-12T06:39:36.309Z,-0.60
2018-12-12T06:42:03.839Z,-0.70
2018-12-12T06:44:31.296Z,-0.70
2018-12-12T06:46:58.700Z,-0.80
2018-12-12T06:49:26.136Z,-0.90
2018-12-12T06:51:53.677Z,-0.80
2018-12-12T06:54:21.077Z,-0.60
2018-12-12T06:56:48.515Z,-0.60
2018-12-12T06:59:15.937Z,-0.60
2018-12-12T07:01:43.578Z,-0.60
2018-12-12T07:04:10.988Z,-0.60
2018-12-12T07:06:38.416Z,-0.60
2018-12-12T07:09:07.998Z,-0.50
2018-12-12T07:11:35.578Z,-0.50
2018-12-12T07:14:09.656Z,-0.50
2018-12-12T07:16:37.118Z,-0.50
2018-12-12T07:19:04.545Z,-0.70
2018-12-12T07:21:31.987Z,-0.70
2018-12-12T07:23:59.420Z,-0.70
2018-12-12T07:26:26.861Z,-0.70
2018-12-12T07:28:54.260Z,-0.70
2018-12-12T07:31:21.701Z,-0.70
2018-12-12T07:33:49.227Z,-0.60
2018-12-12T07:36:16.655Z,-0.60
2018-12-12T07:38:44.110Z,-0.40
2018-12-12T07:41:11.666Z,-0.50
2018-12-12T07:43:39.088Z,-0.50
2018-12-12T07:46:06.833Z,-0.40
2018-12-12T07:48:34.269Z,-0.40
2018-12-12T07:51:01.707Z,-0.30
2018-12-12T07:53:29.130Z,-0.30
2018-12-12T07:55:56.573Z,-0.20
2018-12-12T07:58:24.036Z,-0.20
2018-12-12T08:00:51.584Z,-0.10
2018-12-12T08:03:19.171Z,-0.10
2018-12-12T08:05:46.591Z,-0.30
2018-12-12T08:08:14.058Z,-0.30
2018-12-12T08:10:41.530Z,-0.40
2018-12-12T08:13:09.020Z,-0.40
2018-12-12T08:15:36.421Z,-0.40
2018-12-12T08:18:03.985Z,-0.40
2018-12-12T08:20:31.400Z,-0.30
2018-12-12T08:22:59.056Z,-0.20
2018-12-12T08:25:26.858Z,-0.30
2018-12-12T08:27:54.276Z,-0.30
2018-12-12T08:30:21.696Z,-0.40
2018-12-12T08:32:49.113Z,-0.30
2018-12-12T08:35:16.553Z,-0.10
2018-12-12T08:37:43.975Z,0.10
2018-12-12T08:40:18.144Z,0.10
2018-12-12T08:42:45.555Z,0.20
2018-12-12T08:45:13.025Z,0.40
2018-12-12T08:47:40.444Z,0.30
2018-12-12T08:50:08.207Z,0.40
2018-12-12T08:52:35.614Z,0.40
2018-12-12T08:55:03.704Z,0.50
2018-12-12T08:57:31.263Z,0.20
2018-12-12T09:00:05.376Z,0.20
2018-12-12T09:02:32.777Z,0.30
2018-12-12T09:05:00.223Z,0.40
2018-12-12T09:07:27.629Z,0.30
2018-12-12T09:09:55.077Z,0.10
2018-12-12T09:12:22.488Z,0.10
2018-12-12T09:14:49.923Z,0.10
2018-12-12T09:17:17.336Z,0.20
2018-12-12T09:19:44.780Z,0.20
2018-12-12T09:22:12.171Z,0.20
2018-12-12T09:24:39.609Z,0.20
2018-12-12T09:27:07.040Z,0.40
2018-12-12T09:29:34.444Z,0.50
2018-12-12T09:32:01.854Z,0.80
2018-12-12T09:34:29.268Z,0.90
2018-12-12T09:36:56.652Z,0.80
2018-12-12T09:39:24.113Z,0.80
2018-12-12T09:41:51.580Z,0.80
2018-12-12T09:44:19.129Z,0.80
2018-12-12T09:46:46.539Z,0.80
2018-12-12T09:49:13.925Z,0.80
2018-12-12T09:51:41.331Z,0.80
2018-12-12T09:54:08.727Z,0.70
2018-12-12T09:56:36.143Z,0.70
2018-12-12T09:59:03.668Z,0.80
2018-12-12T10:01:31.204Z,0.70
2018-12-12T10:03:58.603Z,0.70
2018-12-12T10:06:26.147Z,0.90
2018-12-12T10:08:53.569Z,0.80
2018-12-12T10:11:20.991Z,0.80
2018-12-12T10:13:48.382Z,0.90
2018-12-12T10:16:15.932Z,0.90
2018-12-12T10:18:43.333Z,0.50
2018-12-12T10:21:10.884Z,0.70
2018-12-12T10:23:38.276Z,0.80
2018-12-12T10:26:05.827Z,0.80
2018-12-12T10:28:33.225Z,1.00
2018-12-12T10:31:00.686Z,0.60
2018-12-12T10:33:28.072Z,0.60
2018-12-12T10:35:55.480Z,0.60
2018-12-12T10:38:22.876Z,0.60
2018-12-12T10:40:50.290Z,0.90
2018-12-12T10:43:17.683Z,1.00
2018-12-12T10:45:45.272Z,1.00
2018-12-12T10:48:12.668Z,1.20
2018-12-12T10:50:40.096Z,1.10
2018-12-12T10:53:07.493Z,1.20
2018-12-12T10:55:34.901Z,1.40
2018-12-12T10:58:02.405Z,1.70
2018-12-12T11:00:29.825Z,1.50
2018-12-12T11:03:02.814Z,1.50
2018-12-12T11:05:30.364Z,1.70
2018-12-12T11:07:57.764Z,1.90
2018-12-12T11:10:25.952Z,2.20
2018-12-12T11:12:53.453Z,2.00
2018-12-12T11:15:20.948Z,2.00
2018-12-12T11:17:48.388Z,1.90
2018-12-12T11:21:19.501Z,1.70
2018-12-12T11:23:46.924Z,1.70
2018-12-12T11:26:14.529Z,2.30
2018-12-12T11:28:42.043Z,2.40
2018-12-12T11:31:10.515Z,2.40
2018-12-12T11:33:37.924Z,2.50
2018-12-12T11:36:05.499Z,2.50
2018-12-12T11:38:32.896Z,2.50
2018-12-12T11:41:00.308Z,2.90
2018-12-12T11:43:27.729Z,2.90
2018-12-12T11:45:55.140Z,2.90
2018-12-12T11:48:22.535Z,2.70
2018-12-12T11:50:50.069Z,2.80
2018-12-12T11:53:17.498Z,2.70
2018-12-12T11:55:44.961Z,2.30
2018-12-12T11:58:12.371Z,2.40
2018-12-12T12:00:39.880Z,2.80
2018-12-12T12:03:07.333Z,3.30
2018-12-12T12:05:34.743Z,3.60
2018-12-12T12:08:02.193Z,3.30
2018-12-12T12:10:29.624Z,3.20
2018-12-12T12:12:57.118Z,2.90
2018-12-12T12:15:24.537Z,2.90
2018-12-12T12:17:51.976Z,3.10
2018-12-12T12:20:19.396Z,3.30
2018-12-12T12:22:46.833Z,3.60
2018-12-12T12:25:14.242Z,3.80
2018-12-12T12:27:41.660Z,3.70
2018-12-12T12:30:09.203Z,3.60
2018-12-12T12:32:36.640Z,3.70
2018-12-12T12:35:04.436Z,3.70
2018-12-12T12:37:31.868Z,4.00
2018-12-12T12:39:59.265Z,4.20
2018-12-12T12:42:26.694Z,4.10
2018-12-12T12:44:54.098Z,4.20
2018-12-12T12:47:21.519Z,4.20
2018-12-12T12:49:48.933Z,4.20
2018-12-12T12:52:16.375Z,4.20
2018-12-12T12:54:43.768Z,4.40
2018-12-12T12:57:11.236Z,4.30
2018-12-12T12:59:38.655Z,4.10
2018-12-12T13:02:06.199Z,4.20
2018-12-12T13:04:33.611Z,4.00
2018-12-12T13:07:01.075Z,3.90
2018-12-12T13:09:28.523Z,3.90
2018-12-12T13:11:55.975Z,3.80
2018-12-12T13:14:23.664Z,3.80
2018-12-12T13:16:51.059Z,3.80
2018-12-12T13:19:18.690Z,3.90
2018-12-12T13:21:46.188Z,3.80
2018-12-12T13:24:13.670Z,3.70
2018-12-12T13:26:41.060Z,3.80
2018-12-12T13:29:08.509Z,3.70
2018-12-12T13:31:35.908Z,3.80
2018-12-12T13:34:03.451Z,3.90
2018-12-12T13:36:30.859Z,3.70
2018-12-12T13:38:58.292Z,3.80
2018-12-12T13:41:25.697Z,3.80
2018-12-12T13:43:53.151Z,3.70
2018-12-12T13:46:20.689Z,3.60
2018-12-12T13:48:48.114Z,3.50
2018-12-12T13:51:15.524Z,3.50
2018-12-12T13:53:43.008Z,3.40
2018-12-12T13:56:10.420Z,3.40
2018-12-12T13:58:37.897Z,3.40
2018-12-12T14:01:05.480Z,3.50
2018-12-12T14:03:32.943Z,3.40
2018-12-12T14:06:00.372Z,3.40
2018-12-12T14:08:27.851Z,3.60
2018-12-12T14:10:55.374Z,3.60
2018-12-12T14:13:22.848Z,3.60
2018-12-12T14:15:50.268Z,3.60
2018-12-12T14:18:17.730Z,3.60
2018-12-12T14:20:45.164Z,3.70
2018-12-12T14:23:12.620Z,3.70
2018-12-12T14:25:40.047Z,3.60
2018-12-12T14:28:07.504Z,3.60
2018-12-12T14:30:34.927Z,3.60
2018-12-12T14:33:02.448Z,3.60
2018-12-12T14:35:29.890Z,3.50
2018-12-12T14:37:57.317Z,3.50
2018-12-12T14:40:24.775Z,3.40
2018-12-12T14:42:52.223Z,3.40
2018-12-12T14:45:19.707Z,3.30
2018-12-12T14:47:47.148Z,3.30
2018-12-12T14:50:17.065Z,3.20
2018-12-12T14:52:44.594Z,3.30
2018-12-12T14:55:12.023Z,3.30
2018-12-12T14:57:39.428Z,3.40
2018-12-12T15:00:07.075Z,3.20
2018-12-12T15:02:34.551Z,3.20
2018-12-12T15:05:02.164Z,3.20
2018-12-12T15:07:29.582Z,3.30
2018-12-12T15:09:57.042Z,3.20
2018-12-12T15:12:24.448Z,3.20
2018-12-12T15:14:51.921Z,3.10
2018-12-12T15:17:19.355Z,2.90
2018-12-12T15:19:46.801Z,2.90
2018-12-12T15:22:14.362Z,2.80
2018-12-12T15:24:41.850Z,2.80
2018-12-12T15:27:09.329Z,2.70
2018-12-12T15:29:36.802Z,2.50
2018-12-12T15:32:04.277Z,2.50
2018-12-12T15:34:31.725Z,2.50
2018-12-12T15:36:59.155Z,2.40
2018-12-12T15:39:33.471Z,2.40
2018-12-12T15:42:00.895Z,2.40
2018-12-12T15:44:28.400Z,2.20
2018-12-12T15:46:55.877Z,2.10
2018-12-12T15:49:23.357Z,2.10
2018-12-12T15:51:50.766Z,1.90
2018-12-12T15:54:18.305Z,1.80
2018-12-12T15:56:45.770Z,1.70
2018-12-12T15:59:13.232Z,1.70
2018-12-12T16:01:41.067Z,1.80
2018-12-12T16:04:08.570Z,1.80
2018-12-12T16:06:36.033Z,1.90
2018-12-12T16:09:05.620Z,1.90
2018-12-12T16:11:33.101Z,2.00
2018-12-12T16:14:00.509Z,2.00
2018-12-12T16:16:28.088Z,1.90
2018-12-12T16:18:55.482Z,1.90
2018-12-12T16:21:23.059Z,1.80
2018-12-12T16:23:50.472Z,1.60
2018-12-12T16:26:17.943Z,1.60
2018-12-12T16:28:45.514Z,1.60
2018-12-12T16:31:12.997Z,1.60
2018-12-12T16:33:40.610Z,1.60
2018-12-12T16:36:08.092Z,1.60
2018-12-12T16:38:35.528Z,1.40
2018-12-12T16:41:03.022Z,1.20
2018-12-12T16:44:55.949Z,1.10
2018-12-12T16:47:23.353Z,0.90
2018-12-12T16:49:50.843Z,0.70
2018-12-12T16:52:18.255Z,0.70
2018-12-12T16:54:45.720Z,0.80
2018-12-12T16:57:13.107Z,0.90
2018-12-12T16:59:40.667Z,1.00
2018-12-12T17:02:08.143Z,1.00
2018-12-12T17:04:35.722Z,1.10
2018-12-12T17:07:03.191Z,1.10
2018-12-12T17:09:30.710Z,1.10
2018-12-12T17:11:58.149Z,1.10
2018-12-12T17:14:26.531Z,1.10
2018-12-12T17:16:54.139Z,1.20
2018-12-12T17:19:21.523Z,1.20
2018-12-12T17:21:49.021Z,1.10
2018-12-12T17:24:16.535Z,1.20
2018-12-12T17:26:43.996Z,1.20
2018-12-12T17:29:11.445Z,1.20
2018-12-12T17:31:39.319Z,1.20
2018-12-12T17:34:13.476Z,1.10
2018-12-12T17:36:40.921Z,1.20
2018-12-12T17:39:08.319Z,1.30
2018-12-12T17:41:35.801Z,1.20
2018-12-12T17:44:04.863Z,1.20
2018-12-12T17:46:32.668Z,1.30
2018-12-12T17:49:00.153Z,1.30
2018-12-12T17:51:27.698Z,1.30
2018-12-12T17:53:55.145Z,1.40
2018-12-12T17:56:22.654Z,1.40
2018-12-12T17:58:50.186Z,1.50
2018-12-12T18:01:17.882Z,1.50
2018-12-12T18:03:45.328Z,1.50
2018-12-12T18:06:12.875Z,1.60
2018-12-12T18:08:40.360Z,1.60
2018-12-12T18:11:07.824Z,1.50
2018-12-12T18:13:35.237Z,1.60
2018-12-12T18:16:02.721Z,1.50
2018-12-12T18:18:30.121Z,1.50
2018-12-12T18:20:57.572Z,1.50
2018-12-12T18:23:24.984Z,1.50
2018-12-12T18:25:52.590Z,1.50
2018-12-12T18:28:19.999Z,1.60
2018-12-12T18:30:47.481Z,1.70
2018-12-12T18:33:14.898Z,1.70
2018-12-12T18:35:42.377Z,1.90
2018-12-12T18:38:09.805Z,1.80
2018-12-12T18:40:37.284Z,1.90
2018-12-12T18:43:05.313Z,1.90
2018-12-12T18:45:32.925Z,1.90
2018-12-12T18:48:00.386Z,1.90
2018-12-12T18:50:27.885Z,1.90
2018-12-12T18:52:55.345Z,2.10
2018-12-12T18:55:22.884Z,2.10
2018-12-12T18:57:50.367Z,2.10
2018-12-12T19:00:17.918Z,2.10
2018-12-12T19:02:45.409Z,2.10
2018-12-12T19:05:12.893Z,2.20
2018-12-12T19:07:40.430Z,2.20
2018-12-12T19:10:08.317Z,2.20
2018-12-12T19:12:35.853Z,2.20
2018-12-12T19:15:04.839Z,2.30
2018-12-12T19:17:32.375Z,2.20
2018-12-12T19:19:59.847Z,2.30
2018-12-12T19:22:27.492Z,2.20
2018-12-12T19:24:54.961Z,2.20
2018-12-12T19:27:22.484Z,2.20
2018-12-12T19:29:49.941Z,2.30
2018-12-12T19:32:17.516Z,2.20
2018-12-12T19:34:49.839Z,2.30
2018-12-12T19:37:14.624Z,2.20
2018-12-12T19:39:42.079Z,2.20
2018-12-12T19:42:09.646Z,2.20
2018-12-12T19:44:37.144Z,2.30
2018-12-12T19:47:04.740Z,2.30
2018-12-12T19:49:32.288Z,2.30
2018-12-12T19:51:59.865Z,2.30
2018-12-12T19:54:27.361Z,2.30
2018-12-12T19:56:55.069Z,2.20
2018-12-12T19:59:22.558Z,2.10
2018-12-12T20:01:50.141Z,2.10
2018-12-12T20:04:17.689Z,2.10
2018-12-12T20:06:45.237Z,2.00
2018-12-12T20:09:13.128Z,2.00
2018-12-12T20:11:40.994Z,2.00
2018-12-12T20:14:08.474Z,2.10
2018-12-12T20:16:36.009Z,2.10
2018-12-12T20:19:03.485Z,2.10
2018-12-12T20:21:31.024Z,2.00
2018-12-12T20:23:58.499Z,2.10
2018-12-12T20:26:27.079Z,2.10
2018-12-12T20:28:54.572Z,2.00
2018-12-12T20:31:22.109Z,1.90
2018-12-12T20:33:49.581Z,1.80
2018-12-12T20:36:17.108Z,1.80
2018-12-12T20:38:44.587Z,1.70
2018-12-12T20:41:12.824Z,1.70
2018-12-12T20:43:40.217Z,1.70
2018-12-12T20:46:07.692Z,1.60
2018-12-12T20:48:35.100Z,1.60
2018-12-12T20:51:02.555Z,1.70
2018-12-12T20:53:29.964Z,1.70
2018-12-12T20:55:57.412Z,1.70
2018-12-12T20:58:24.828Z,1.60
2018-12-12T21:00:52.224Z,1.50
2018-12-12T21:03:19.740Z,1.50
2018-12-12T21:05:47.163Z,1.50
2018-12-12T21:08:14.739Z,1.50
2018-12-12T21:10:42.136Z,1.50
2018-12-12T21:13:09.585Z,1.40
2018-12-12T21:15:37.009Z,1.40
2018-12-12T21:18:04.479Z,1.40
2018-12-12T21:20:32.040Z,1.30
2018-12-12T21:22:59.478Z,1.30
2018-12-12T21:25:29.783Z,1.30
2018-12-12T21:27:57.230Z,1.20
2018-12-12T21:30:24.637Z,1.10
2018-12-12T21:32:52.080Z,1.10
2018-12-12T21:35:19.484Z,1.00
2018-12-12T21:37:46.952Z,1.00
2018-12-12T21:40:14.492Z,1.00
2018-12-12T21:42:41.947Z,0.90
2018-12-12T21:45:09.587Z,0.80
2018-12-12T21:47:37.040Z,0.80
2018-12-12T21:50:05.024Z,0.80
2018-12-12T21:52:32.453Z,0.70
2018-12-12T21:54:59.857Z,0.60
2018-12-12T21:57:27.349Z,0.50
2018-12-12T21:59:54.824Z,0.60
2018-12-12T22:02:22.360Z,0.60
2018-12-12T22:04:49.752Z,0.50
2018-12-12T22:07:17.159Z,0.60
2018-12-12T22:09:44.545Z,0.60
2018-12-12T22:12:11.972Z,0.40
2018-12-12T22:14:39.365Z,0.40
2018-12-12T22:17:06.793Z,0.40
2018-12-12T22:19:34.191Z,0.40
2018-12-12T22:22:01.623Z,0.50
2018-12-12T22:24:29.021Z,0.40
2018-12-12T22:26:56.443Z,0.30
2018-12-12T22:29:23.846Z,0.40
2018-12-12T22:31:51.261Z,0.40
2018-12-12T22:34:18.648Z,0.40
2018-12-12T22:36:46.900Z,0.40
2018-12-12T22:39:14.296Z,0.30
2018-12-12T22:41:41.711Z,0.30
2018-12-12T22:44:09.103Z,0.40
2018-12-12T22:46:36.536Z,0.40
2018-12-12T22:49:03.937Z,0.30
2018-12-12T22:51:31.424Z,0.30
2018-12-12T22:53:58.850Z,0.40
2018-12-12T22:56:26.260Z,0.40
2018-12-12T22:58:53.727Z,0.30
2018-12-12T23:01:23.301Z,0.20
2018-12-12T23:03:50.860Z,0.20
2018-12-12T23:06:20.494Z,0.20
2018-12-12T23:08:47.756Z,0.20
2018-12-12T23:11:15.205Z,0.20
2018-12-12T23:13:42.800Z,0.20
2018-12-12T23:16:10.310Z,0.10
2018-12-12T23:18:38.608Z,0.10
2018-12-12T23:21:05.992Z,0.00
2018-12-12T23:23:33.453Z,0.00
2018-12-12T23:26:00.848Z,0.10
2018-12-12T23:28:28.269Z,0.20
2018-12-12T23:30:55.669Z,0.30
2018-12-12T23:33:24.026Z,0.20
2018-12-12T23:35:51.626Z,0.20
2018-12-12T23:38:19.048Z,0.00
2018-12-12T23:40:46.484Z,0.00
2018-12-12T23:43:13.887Z,0.00
2018-12-12T23:45:41.299Z,0.00
2018-12-12T23:48:08.803Z,-0.10
2018-12-12T23:50:36.184Z,-0.10
2018-12-12T23:53:03.611Z,-0.10
2018-12-12T23:55:31.075Z,-0.10
2018-12-12T23:57:58.492Z,-0.10
